sensor_id;sensor_type;location;lat;lon;timestamp;P1;durP1;ratioP1;P2;durP2;ratioP2
19482;SDS011;9882;51.166;6.992;2023-08-17T00:00:56;7.43;;;3.28;;
19482;SDS011;9882;51.166;6.992;2023-08-17T00:03:30;10.10;;;3.75;;
19482;SDS011;9882;51.166;6.992;2023-08-17T00:06:09;7.80;;;3.92;;
19482;SDS011;9882;51.166;6.992;2023-08-17T00:08:41;7.90;;;3.90;;
19482;SDS011;9882;51.166;6.992;2023-08-17T00:11:11;12.60;;;3.55;;
19482;SDS011;9882;51.166;6.992;2023-08-17T00:13:45;14.05;;;3.67;;
19482;SDS011;9882;51.166;6.992;2023-08-17T00:16:22;6.75;;;3.80;;
19482;SDS011;9882;51.166;6.992;2023-08-17T00:18:59;8.05;;;3.75;;
19482;SDS011;9882;51.166;6.992;2023-08-17T00:21:30;10.50;;;4.10;;
19482;SDS011;9882;51.166;6.992;2023-08-17T00:24:04;8.57;;;3.70;;
19482;SDS011;9882;51.166;6.992;2023-08-17T00:26:36;10.85;;;4.10;;
19482;SDS011;9882;51.166;6.992;2023-08-17T00:29:14;7.00;;;3.75;;
19482;SDS011;9882;51.166;6.992;2023-08-17T00:31:47;6.55;;;3.65;;
19482;SDS011;9882;51.166;6.992;2023-08-17T00:34:24;6.60;;;3.30;;
19482;SDS011;9882;51.166;6.992;2023-08-17T00:37:00;11.95;;;4.13;;
19482;SDS011;9882;51.166;6.992;2023-08-17T00:39:35;10.35;;;4.68;;
19482;SDS011;9882;51.166;6.992;2023-08-17T00:42:07;9.65;;;4.10;;
19482;SDS011;9882;51.166;6.992;2023-08-17T00:44:37;6.93;;;3.40;;
19482;SDS011;9882;51.166;6.992;2023-08-17T00:47:13;11.32;;;4.75;;
19482;SDS011;9882;51.166;6.992;2023-08-17T00:49:58;13.18;;;4.70;;
19482;SDS011;9882;51.166;6.992;2023-08-17T00:52:29;11.93;;;4.05;;
19482;SDS011;9882;51.166;6.992;2023-08-17T00:55:14;12.93;;;5.30;;
19482;SDS011;9882;51.166;6.992;2023-08-17T00:57:49;9.60;;;4.25;;
19482;SDS011;9882;51.166;6.992;2023-08-17T01:00:23;9.70;;;4.47;;
19482;SDS011;9882;51.166;6.992;2023-08-17T01:02:56;10.23;;;4.60;;
19482;SDS011;9882;51.166;6.992;2023-08-17T01:05:35;10.75;;;4.80;;
19482;SDS011;9882;51.166;6.992;2023-08-17T01:11:14;11.73;;;4.35;;
19482;SDS011;9882;51.166;6.992;2023-08-17T01:14:02;16.38;;;5.45;;
19482;SDS011;9882;51.166;6.992;2023-08-17T01:17:10;10.68;;;4.53;;
19482;SDS011;9882;51.166;6.992;2023-08-17T01:24:38;15.18;;;4.78;;
19482;SDS011;9882;51.166;6.992;2023-08-17T01:27:33;9.48;;;4.53;;
19482;SDS011;9882;51.166;6.992;2023-08-17T01:30:12;14.60;;;4.97;;
19482;SDS011;9882;51.166;6.992;2023-08-17T01:32:48;10.95;;;4.57;;
19482;SDS011;9882;51.166;6.992;2023-08-17T01:35:44;13.60;;;5.15;;
19482;SDS011;9882;51.166;6.992;2023-08-17T01:38:24;10.23;;;4.57;;
19482;SDS011;9882;51.166;6.992;2023-08-17T01:48:40;8.65;;;4.38;;
19482;SDS011;9882;51.166;6.992;2023-08-17T01:51:09;6.45;;;3.70;;
19482;SDS011;9882;51.166;6.992;2023-08-17T01:53:38;8.18;;;3.92;;
19482;SDS011;9882;51.166;6.992;2023-08-17T01:56:07;12.63;;;3.90;;
19482;SDS011;9882;51.166;6.992;2023-08-17T01:58:38;10.15;;;4.32;;
19482;SDS011;9882;51.166;6.992;2023-08-17T02:01:06;8.80;;;4.28;;
19482;SDS011;9882;51.166;6.992;2023-08-17T02:03:36;6.43;;;3.50;;
19482;SDS011;9882;51.166;6.992;2023-08-17T02:06:07;4.25;;;3.10;;
19482;SDS011;9882;51.166;6.992;2023-08-17T02:08:36;6.10;;;3.25;;
19482;SDS011;9882;51.166;6.992;2023-08-17T02:11:05;5.60;;;3.42;;
19482;SDS011;9882;51.166;6.992;2023-08-17T02:13:34;7.18;;;3.55;;
19482;SDS011;9882;51.166;6.992;2023-08-17T02:16:07;10.02;;;3.58;;
19482;SDS011;9882;51.166;6.992;2023-08-17T02:18:37;6.47;;;3.53;;
19482;SDS011;9882;51.166;6.992;2023-08-17T02:21:06;10.20;;;3.50;;
19482;SDS011;9882;51.166;6.992;2023-08-17T02:23:38;5.50;;;2.90;;
19482;SDS011;9882;51.166;6.992;2023-08-17T02:26:07;3.75;;;2.80;;
19482;SDS011;9882;51.166;6.992;2023-08-17T02:28:36;7.25;;;2.97;;
19482;SDS011;9882;51.166;6.992;2023-08-17T02:31:06;5.15;;;2.90;;
19482;SDS011;9882;51.166;6.992;2023-08-17T02:33:34;4.07;;;2.80;;
19482;SDS011;9882;51.166;6.992;2023-08-17T02:36:06;4.90;;;2.90;;
19482;SDS011;9882;51.166;6.992;2023-08-17T02:38:35;3.97;;;2.90;;
19482;SDS011;9882;51.166;6.992;2023-08-17T02:41:06;6.07;;;3.55;;
19482;SDS011;9882;51.166;6.992;2023-08-17T02:43:34;5.75;;;3.10;;
19482;SDS011;9882;51.166;6.992;2023-08-17T02:46:03;15.80;;;3.28;;
19482;SDS011;9882;51.166;6.992;2023-08-17T02:48:36;4.68;;;3.00;;
19482;SDS011;9882;51.166;6.992;2023-08-17T02:51:05;6.85;;;3.65;;
19482;SDS011;9882;51.166;6.992;2023-08-17T02:53:35;7.25;;;3.22;;
19482;SDS011;9882;51.166;6.992;2023-08-17T02:56:04;4.90;;;3.00;;
19482;SDS011;9882;51.166;6.992;2023-08-17T02:58:35;5.90;;;3.40;;
19482;SDS011;9882;51.166;6.992;2023-08-17T03:01:05;8.40;;;3.78;;
19482;SDS011;9882;51.166;6.992;2023-08-17T03:03:34;9.88;;;3.70;;
19482;SDS011;9882;51.166;6.992;2023-08-17T03:06:04;4.60;;;2.92;;
19482;SDS011;9882;51.166;6.992;2023-08-17T03:08:38;6.93;;;2.92;;
19482;SDS011;9882;51.166;6.992;2023-08-17T03:11:07;3.17;;;2.60;;
19482;SDS011;9882;51.166;6.992;2023-08-17T03:13:36;5.30;;;2.63;;
19482;SDS011;9882;51.166;6.992;2023-08-17T03:16:05;2.92;;;2.40;;
19482;SDS011;9882;51.166;6.992;2023-08-17T03:18:34;6.97;;;3.67;;
19482;SDS011;9882;51.166;6.992;2023-08-17T03:21:03;5.22;;;3.40;;
19482;SDS011;9882;51.166;6.992;2023-08-17T03:23:35;8.48;;;3.75;;
19482;SDS011;9882;51.166;6.992;2023-08-17T03:26:04;8.63;;;3.05;;
19482;SDS011;9882;51.166;6.992;2023-08-17T03:28:33;4.72;;;3.20;;
19482;SDS011;9882;51.166;6.992;2023-08-17T03:31:06;5.57;;;3.08;;
19482;SDS011;9882;51.166;6.992;2023-08-17T03:33:35;4.80;;;3.00;;
19482;SDS011;9882;51.166;6.992;2023-08-17T03:36:04;7.57;;;2.67;;
19482;SDS011;9882;51.166;6.992;2023-08-17T03:38:33;3.35;;;2.58;;
19482;SDS011;9882;51.166;6.992;2023-08-17T03:41:06;10.75;;;3.75;;
19482;SDS011;9882;51.166;6.992;2023-08-17T03:43:34;5.20;;;3.10;;
19482;SDS011;9882;51.166;6.992;2023-08-17T03:46:03;5.53;;;3.28;;
19482;SDS011;9882;51.166;6.992;2023-08-17T03:48:34;4.03;;;2.78;;
19482;SDS011;9882;51.166;6.992;2023-08-17T03:51:02;9.55;;;3.20;;
19482;SDS011;9882;51.166;6.992;2023-08-17T03:53:31;4.85;;;3.05;;
19482;SDS011;9882;51.166;6.992;2023-08-17T03:56:06;10.60;;;3.33;;
19482;SDS011;9882;51.166;6.992;2023-08-17T03:58:35;5.60;;;3.00;;
19482;SDS011;9882;51.166;6.992;2023-08-17T04:01:08;9.60;;;3.55;;
19482;SDS011;9882;51.166;6.992;2023-08-17T04:03:40;6.60;;;3.15;;
19482;SDS011;9882;51.166;6.992;2023-08-17T04:06:09;4.90;;;3.00;;
19482;SDS011;9882;51.166;6.992;2023-08-17T04:08:38;5.90;;;3.40;;
19482;SDS011;9882;51.166;6.992;2023-08-17T04:11:08;7.43;;;3.83;;
19482;SDS011;9882;51.166;6.992;2023-08-17T04:13:36;8.88;;;4.03;;
19482;SDS011;9882;51.166;6.992;2023-08-17T04:16:05;5.45;;;3.15;;
19482;SDS011;9882;51.166;6.992;2023-08-17T04:18:34;5.72;;;3.30;;
19482;SDS011;9882;51.166;6.992;2023-08-17T04:21:03;9.00;;;4.85;;
19482;SDS011;9882;51.166;6.992;2023-08-17T04:23:33;8.93;;;4.22;;
19482;SDS011;9882;51.166;6.992;2023-08-17T04:26:02;9.38;;;3.90;;
19482;SDS011;9882;51.166;6.992;2023-08-17T04:28:33;9.07;;;4.20;;
19482;SDS011;9882;51.166;6.992;2023-08-17T04:31:05;11.63;;;4.10;;
19482;SDS011;9882;51.166;6.992;2023-08-17T04:33:37;9.02;;;4.82;;
19482;SDS011;9882;51.166;6.992;2023-08-17T04:36:07;14.52;;;6.40;;
19482;SDS011;9882;51.166;6.992;2023-08-17T04:38:36;9.32;;;4.30;;
19482;SDS011;9882;51.166;6.992;2023-08-17T04:41:05;9.38;;;4.40;;
19482;SDS011;9882;51.166;6.992;2023-08-17T04:43:38;8.68;;;4.50;;
19482;SDS011;9882;51.166;6.992;2023-08-17T04:46:07;19.83;;;6.00;;
19482;SDS011;9882;51.166;6.992;2023-08-17T04:48:36;11.63;;;5.75;;
19482;SDS011;9882;51.166;6.992;2023-08-17T04:51:05;13.50;;;6.03;;
19482;SDS011;9882;51.166;6.992;2023-08-17T04:53:35;11.38;;;5.25;;
19482;SDS011;9882;51.166;6.992;2023-08-17T04:56:06;15.90;;;5.40;;
19482;SDS011;9882;51.166;6.992;2023-08-17T04:58:35;11.90;;;5.07;;
19482;SDS011;9882;51.166;6.992;2023-08-17T05:01:06;10.40;;;5.10;;
19482;SDS011;9882;51.166;6.992;2023-08-17T05:03:35;12.88;;;4.95;;
19482;SDS011;9882;51.166;6.992;2023-08-17T05:06:04;18.05;;;5.43;;
19482;SDS011;9882;51.166;6.992;2023-08-17T05:08:33;23.05;;;6.53;;
19482;SDS011;9882;51.166;6.992;2023-08-17T05:11:02;21.77;;;7.03;;
19482;SDS011;9882;51.166;6.992;2023-08-17T05:13:39;16.65;;;7.03;;
19482;SDS011;9882;51.166;6.992;2023-08-17T05:16:08;16.50;;;5.53;;
19482;SDS011;9882;51.166;6.992;2023-08-17T05:18:39;11.65;;;5.63;;
19482;SDS011;9882;51.166;6.992;2023-08-17T05:21:10;13.75;;;5.18;;
19482;SDS011;9882;51.166;6.992;2023-08-17T05:23:39;10.27;;;4.85;;
19482;SDS011;9882;51.166;6.992;2023-08-17T05:26:07;20.30;;;5.60;;
19482;SDS011;9882;51.166;6.992;2023-08-17T05:28:36;14.65;;;5.28;;
19482;SDS011;9882;51.166;6.992;2023-08-17T05:31:06;12.18;;;5.50;;
19482;SDS011;9882;51.166;6.992;2023-08-17T05:33:38;15.23;;;6.00;;
19482;SDS011;9882;51.166;6.992;2023-08-17T05:36:08;13.02;;;5.65;;
19482;SDS011;9882;51.166;6.992;2023-08-17T05:38:37;13.43;;;4.90;;
19482;SDS011;9882;51.166;6.992;2023-08-17T05:41:05;14.93;;;6.18;;
19482;SDS011;9882;51.166;6.992;2023-08-17T05:43:34;14.10;;;5.32;;
19482;SDS011;9882;51.166;6.992;2023-08-17T05:46:03;14.45;;;5.15;;
19482;SDS011;9882;51.166;6.992;2023-08-17T05:48:32;13.02;;;6.05;;
19482;SDS011;9882;51.166;6.992;2023-08-17T05:51:01;12.27;;;5.25;;
19482;SDS011;9882;51.166;6.992;2023-08-17T05:53:30;11.88;;;5.32;;
19482;SDS011;9882;51.166;6.992;2023-08-17T05:55:58;20.90;;;5.60;;
19482;SDS011;9882;51.166;6.992;2023-08-17T05:58:27;12.35;;;5.00;;
19482;SDS011;9882;51.166;6.992;2023-08-17T06:00:59;12.90;;;5.43;;
19482;SDS011;9882;51.166;6.992;2023-08-17T06:03:33;15.93;;;6.10;;
19482;SDS011;9882;51.166;6.992;2023-08-17T06:06:02;11.90;;;5.65;;
19482;SDS011;9882;51.166;6.992;2023-08-17T06:08:32;12.02;;;5.32;;
19482;SDS011;9882;51.166;6.992;2023-08-17T06:11:00;13.18;;;5.55;;
19482;SDS011;9882;51.166;6.992;2023-08-17T06:13:29;11.27;;;5.00;;
19482;SDS011;9882;51.166;6.992;2023-08-17T06:15:58;11.32;;;5.13;;
19482;SDS011;9882;51.166;6.992;2023-08-17T06:18:26;15.32;;;5.43;;
19482;SDS011;9882;51.166;6.992;2023-08-17T06:20:56;10.45;;;4.82;;
19482;SDS011;9882;51.166;6.992;2023-08-17T06:23:25;12.68;;;5.05;;
19482;SDS011;9882;51.166;6.992;2023-08-17T06:25:55;10.93;;;4.95;;
19482;SDS011;9882;51.166;6.992;2023-08-17T06:28:25;11.25;;;5.20;;
19482;SDS011;9882;51.166;6.992;2023-08-17T06:30:53;14.07;;;5.70;;
19482;SDS011;9882;51.166;6.992;2023-08-17T06:33:22;14.70;;;6.03;;
19482;SDS011;9882;51.166;6.992;2023-08-17T06:35:51;22.38;;;6.90;;
19482;SDS011;9882;51.166;6.992;2023-08-17T06:38:21;13.10;;;5.40;;
19482;SDS011;9882;51.166;6.992;2023-08-17T06:40:50;10.55;;;4.75;;
19482;SDS011;9882;51.166;6.992;2023-08-17T06:43:19;13.60;;;5.43;;
19482;SDS011;9882;51.166;6.992;2023-08-17T06:45:48;11.38;;;4.88;;
19482;SDS011;9882;51.166;6.992;2023-08-17T06:48:16;18.90;;;6.82;;
19482;SDS011;9882;51.166;6.992;2023-08-17T06:50:45;11.02;;;5.25;;
19482;SDS011;9882;51.166;6.992;2023-08-17T06:53:13;13.95;;;5.78;;
19482;SDS011;9882;51.166;6.992;2023-08-17T06:55:43;16.92;;;5.47;;
19482;SDS011;9882;51.166;6.992;2023-08-17T06:58:12;13.27;;;5.65;;
19482;SDS011;9882;51.166;6.992;2023-08-17T07:00:40;18.42;;;6.90;;
19482;SDS011;9882;51.166;6.992;2023-08-17T07:03:10;13.73;;;6.50;;
19482;SDS011;9882;51.166;6.992;2023-08-17T07:05:39;11.50;;;5.10;;
19482;SDS011;9882;51.166;6.992;2023-08-17T07:08:07;10.27;;;5.18;;
19482;SDS011;9882;51.166;6.992;2023-08-17T07:10:36;15.73;;;5.57;;
19482;SDS011;9882;51.166;6.992;2023-08-17T07:13:06;12.75;;;6.38;;
19482;SDS011;9882;51.166;6.992;2023-08-17T07:15:34;11.48;;;4.78;;
19482;SDS011;9882;51.166;6.992;2023-08-17T07:18:03;14.20;;;5.72;;
19482;SDS011;9882;51.166;6.992;2023-08-17T07:20:32;13.80;;;5.10;;
19482;SDS011;9882;51.166;6.992;2023-08-17T07:23:01;20.35;;;7.30;;
19482;SDS011;9882;51.166;6.992;2023-08-17T07:25:30;17.40;;;6.80;;
19482;SDS011;9882;51.166;6.992;2023-08-17T07:27:59;16.63;;;6.95;;
19482;SDS011;9882;51.166;6.992;2023-08-17T07:30:29;17.15;;;6.72;;
19482;SDS011;9882;51.166;6.992;2023-08-17T07:32:58;16.88;;;5.53;;
19482;SDS011;9882;51.166;6.992;2023-08-17T07:35:26;20.23;;;7.65;;
19482;SDS011;9882;51.166;6.992;2023-08-17T07:37:55;16.38;;;5.95;;
19482;SDS011;9882;51.166;6.992;2023-08-17T07:40:29;16.27;;;6.07;;
19482;SDS011;9882;51.166;6.992;2023-08-17T07:42:58;13.23;;;5.15;;
19482;SDS011;9882;51.166;6.992;2023-08-17T07:45:26;10.25;;;4.55;;
19482;SDS011;9882;51.166;6.992;2023-08-17T07:47:56;11.20;;;4.80;;
19482;SDS011;9882;51.166;6.992;2023-08-17T07:50:25;15.50;;;6.07;;
19482;SDS011;9882;51.166;6.992;2023-08-17T07:52:53;11.95;;;5.80;;
19482;SDS011;9882;51.166;6.992;2023-08-17T07:55:22;11.13;;;4.88;;
19482;SDS011;9882;51.166;6.992;2023-08-17T07:57:51;11.48;;;5.40;;
19482;SDS011;9882;51.166;6.992;2023-08-17T08:00:19;15.15;;;5.55;;
19482;SDS011;9882;51.166;6.992;2023-08-17T08:02:48;14.13;;;5.78;;
19482;SDS011;9882;51.166;6.992;2023-08-17T08:05:18;12.15;;;5.30;;
19482;SDS011;9882;51.166;6.992;2023-08-17T08:07:47;14.02;;;5.20;;
19482;SDS011;9882;51.166;6.992;2023-08-17T08:10:15;8.52;;;4.35;;
19482;SDS011;9882;51.166;6.992;2023-08-17T08:12:44;11.02;;;5.18;;
19482;SDS011;9882;51.166;6.992;2023-08-17T08:15:13;13.48;;;4.95;;
19482;SDS011;9882;51.166;6.992;2023-08-17T08:17:41;10.20;;;4.65;;
19482;SDS011;9882;51.166;6.992;2023-08-17T08:20:10;12.32;;;4.93;;
19482;SDS011;9882;51.166;6.992;2023-08-17T08:22:40;11.48;;;4.72;;
19482;SDS011;9882;51.166;6.992;2023-08-17T08:25:08;10.85;;;4.82;;
19482;SDS011;9882;51.166;6.992;2023-08-17T08:27:37;11.57;;;4.50;;
19482;SDS011;9882;51.166;6.992;2023-08-17T08:30:06;8.98;;;4.57;;
19482;SDS011;9882;51.166;6.992;2023-08-17T08:32:35;12.07;;;4.32;;
19482;SDS011;9882;51.166;6.992;2023-08-17T08:35:04;12.38;;;4.65;;
19482;SDS011;9882;51.166;6.992;2023-08-17T08:37:33;9.98;;;4.63;;
19482;SDS011;9882;51.166;6.992;2023-08-17T08:40:03;9.75;;;4.43;;
19482;SDS011;9882;51.166;6.992;2023-08-17T08:42:36;8.93;;;3.92;;
19482;SDS011;9882;51.166;6.992;2023-08-17T08:45:05;9.30;;;4.55;;
19482;SDS011;9882;51.166;6.992;2023-08-17T08:47:34;9.68;;;4.68;;
19482;SDS011;9882;51.166;6.992;2023-08-17T08:50:04;13.02;;;4.95;;
19482;SDS011;9882;51.166;6.992;2023-08-17T08:52:34;10.38;;;4.40;;
19482;SDS011;9882;51.166;6.992;2023-08-17T08:55:07;8.80;;;4.40;;
19482;SDS011;9882;51.166;6.992;2023-08-17T08:57:39;11.43;;;4.70;;
19482;SDS011;9882;51.166;6.992;2023-08-17T09:00:09;14.18;;;5.47;;
19482;SDS011;9882;51.166;6.992;2023-08-17T09:02:40;10.07;;;4.65;;
19482;SDS011;9882;51.166;6.992;2023-08-17T09:05:10;11.63;;;5.10;;
19482;SDS011;9882;51.166;6.992;2023-08-17T09:07:40;8.82;;;4.60;;
19482;SDS011;9882;51.166;6.992;2023-08-17T09:10:12;11.40;;;4.53;;
19482;SDS011;9882;51.166;6.992;2023-08-17T09:12:43;15.88;;;6.00;;
19482;SDS011;9882;51.166;6.992;2023-08-17T09:15:14;12.07;;;5.55;;
19482;SDS011;9882;51.166;6.992;2023-08-17T09:17:43;10.98;;;5.07;;
19482;SDS011;9882;51.166;6.992;2023-08-17T09:20:12;9.93;;;5.15;;
19482;SDS011;9882;51.166;6.992;2023-08-17T09:23:02;9.93;;;4.63;;
19482;SDS011;9882;51.166;6.992;2023-08-17T09:25:35;14.00;;;6.13;;
19482;SDS011;9882;51.166;6.992;2023-08-17T09:28:07;16.88;;;6.65;;
19482;SDS011;9882;51.166;6.992;2023-08-17T09:30:52;12.07;;;5.53;;
19482;SDS011;9882;51.166;6.992;2023-08-17T09:33:22;8.88;;;4.65;;
19482;SDS011;9882;51.166;6.992;2023-08-17T09:35:51;13.63;;;5.32;;
19482;SDS011;9882;51.166;6.992;2023-08-17T09:38:24;13.65;;;5.43;;
19482;SDS011;9882;51.166;6.992;2023-08-17T09:40:54;13.20;;;5.20;;
19482;SDS011;9882;51.166;6.992;2023-08-17T09:43:23;9.18;;;4.60;;
19482;SDS011;9882;51.166;6.992;2023-08-17T09:45:54;11.15;;;5.28;;
19482;SDS011;9882;51.166;6.992;2023-08-17T09:48:23;13.45;;;6.03;;
19482;SDS011;9882;51.166;6.992;2023-08-17T09:50:58;19.88;;;5.90;;
19482;SDS011;9882;51.166;6.992;2023-08-17T09:53:28;17.10;;;6.13;;
19482;SDS011;9882;51.166;6.992;2023-08-17T09:56:04;16.33;;;4.90;;
19482;SDS011;9882;51.166;6.992;2023-08-17T09:58:35;11.00;;;4.70;;
19482;SDS011;9882;51.166;6.992;2023-08-17T10:01:03;15.80;;;6.57;;
19482;SDS011;9882;51.166;6.992;2023-08-17T10:03:33;13.73;;;5.60;;
19482;SDS011;9882;51.166;6.992;2023-08-17T10:06:03;18.20;;;6.78;;
19482;SDS011;9882;51.166;6.992;2023-08-17T10:08:35;11.23;;;5.72;;
19482;SDS011;9882;51.166;6.992;2023-08-17T10:11:14;19.25;;;6.85;;
19482;SDS011;9882;51.166;6.992;2023-08-17T10:13:48;13.55;;;6.20;;
19482;SDS011;9882;51.166;6.992;2023-08-17T10:16:21;18.73;;;7.43;;
19482;SDS011;9882;51.166;6.992;2023-08-17T10:18:55;18.00;;;7.35;;
19482;SDS011;9882;51.166;6.992;2023-08-17T10:21:31;13.13;;;5.63;;
19482;SDS011;9882;51.166;6.992;2023-08-17T10:24:05;13.82;;;5.95;;
19482;SDS011;9882;51.166;6.992;2023-08-17T10:26:36;12.90;;;5.57;;
19482;SDS011;9882;51.166;6.992;2023-08-17T10:29:05;13.07;;;5.55;;
19482;SDS011;9882;51.166;6.992;2023-08-17T10:31:39;14.65;;;5.38;;
19482;SDS011;9882;51.166;6.992;2023-08-17T10:34:12;15.85;;;6.10;;
19482;SDS011;9882;51.166;6.992;2023-08-17T10:36:42;12.13;;;5.38;;
19482;SDS011;9882;51.166;6.992;2023-08-17T10:39:19;14.75;;;6.03;;
19482;SDS011;9882;51.166;6.992;2023-08-17T10:41:51;14.80;;;6.25;;
19482;SDS011;9882;51.166;6.992;2023-08-17T10:47:18;15.43;;;5.60;;
19482;SDS011;9882;51.166;6.992;2023-08-17T10:49:50;14.68;;;5.57;;
19482;SDS011;9882;51.166;6.992;2023-08-17T10:52:24;15.40;;;6.68;;
19482;SDS011;9882;51.166;6.992;2023-08-17T10:54:59;13.25;;;5.63;;
19482;SDS011;9882;51.166;6.992;2023-08-17T10:57:35;12.05;;;5.45;;
19482;SDS011;9882;51.166;6.992;2023-08-17T11:00:05;10.50;;;5.22;;
19482;SDS011;9882;51.166;6.992;2023-08-17T11:02:51;15.43;;;6.35;;
19482;SDS011;9882;51.166;6.992;2023-08-17T11:05:34;14.63;;;5.88;;
19482;SDS011;9882;51.166;6.992;2023-08-17T11:08:09;20.23;;;7.03;;
19482;SDS011;9882;51.166;6.992;2023-08-17T11:10:46;16.10;;;6.78;;
19482;SDS011;9882;51.166;6.992;2023-08-17T11:13:18;14.20;;;6.00;;
19482;SDS011;9882;51.166;6.992;2023-08-17T11:15:46;16.45;;;6.80;;
19482;SDS011;9882;51.166;6.992;2023-08-17T11:18:15;20.45;;;7.82;;
19482;SDS011;9882;51.166;6.992;2023-08-17T11:20:46;15.88;;;6.72;;
19482;SDS011;9882;51.166;6.992;2023-08-17T11:23:15;18.80;;;7.15;;
19482;SDS011;9882;51.166;6.992;2023-08-17T11:25:44;20.90;;;6.75;;
19482;SDS011;9882;51.166;6.992;2023-08-17T11:28:13;26.45;;;7.13;;
19482;SDS011;9882;51.166;6.992;2023-08-17T11:30:43;18.33;;;7.40;;
19482;SDS011;9882;51.166;6.992;2023-08-17T11:33:13;19.88;;;7.20;;
19482;SDS011;9882;51.166;6.992;2023-08-17T11:35:41;20.90;;;6.78;;
19482;SDS011;9882;51.166;6.992;2023-08-17T11:38:11;14.43;;;6.03;;
19482;SDS011;9882;51.166;6.992;2023-08-17T11:40:39;15.43;;;6.72;;
19482;SDS011;9882;51.166;6.992;2023-08-17T11:43:08;13.75;;;5.57;;
19482;SDS011;9882;51.166;6.992;2023-08-17T11:45:37;14.30;;;5.93;;
19482;SDS011;9882;51.166;6.992;2023-08-17T11:48:08;15.48;;;6.05;;
19482;SDS011;9882;51.166;6.992;2023-08-17T11:50:37;13.18;;;5.80;;
19482;SDS011;9882;51.166;6.992;2023-08-17T11:53:07;13.52;;;6.05;;
19482;SDS011;9882;51.166;6.992;2023-08-17T11:55:36;11.80;;;5.13;;
19482;SDS011;9882;51.166;6.992;2023-08-17T11:58:04;13.23;;;4.88;;
19482;SDS011;9882;51.166;6.992;2023-08-17T12:00:36;12.30;;;5.57;;
19482;SDS011;9882;51.166;6.992;2023-08-17T12:03:12;15.30;;;5.85;;
19482;SDS011;9882;51.166;6.992;2023-08-17T12:05:43;12.07;;;5.45;;
19482;SDS011;9882;51.166;6.992;2023-08-17T12:08:13;12.77;;;5.32;;
19482;SDS011;9882;51.166;6.992;2023-08-17T12:10:42;14.23;;;5.88;;
19482;SDS011;9882;51.166;6.992;2023-08-17T12:13:12;10.95;;;5.65;;
19482;SDS011;9882;51.166;6.992;2023-08-17T12:15:41;14.55;;;6.10;;
19482;SDS011;9882;51.166;6.992;2023-08-17T12:18:11;15.02;;;5.85;;
19482;SDS011;9882;51.166;6.992;2023-08-17T12:20:43;12.43;;;5.50;;
19482;SDS011;9882;51.166;6.992;2023-08-17T12:23:19;12.95;;;4.95;;
19482;SDS011;9882;51.166;6.992;2023-08-17T12:25:52;15.20;;;5.28;;
19482;SDS011;9882;51.166;6.992;2023-08-17T12:28:21;12.32;;;5.18;;
19482;SDS011;9882;51.166;6.992;2023-08-17T12:30:57;16.23;;;5.78;;
19482;SDS011;9882;51.166;6.992;2023-08-17T12:33:28;14.00;;;6.22;;
19482;SDS011;9882;51.166;6.992;2023-08-17T12:35:57;11.77;;;5.30;;
19482;SDS011;9882;51.166;6.992;2023-08-17T12:38:25;12.35;;;5.55;;
19482;SDS011;9882;51.166;6.992;2023-08-17T12:40:54;11.00;;;4.95;;
19482;SDS011;9882;51.166;6.992;2023-08-17T12:43:22;15.73;;;5.90;;
19482;SDS011;9882;51.166;6.992;2023-08-17T12:45:51;14.15;;;5.68;;
19482;SDS011;9882;51.166;6.992;2023-08-17T12:48:20;14.98;;;6.03;;
19482;SDS011;9882;51.166;6.992;2023-08-17T12:50:49;13.57;;;5.57;;
19482;SDS011;9882;51.166;6.992;2023-08-17T12:53:18;13.20;;;5.78;;
19482;SDS011;9882;51.166;6.992;2023-08-17T12:55:47;12.45;;;5.45;;
19482;SDS011;9882;51.166;6.992;2023-08-17T12:58:21;15.18;;;5.78;;
19482;SDS011;9882;51.166;6.992;2023-08-17T13:00:50;13.88;;;6.05;;
19482;SDS011;9882;51.166;6.992;2023-08-17T13:03:21;14.57;;;4.95;;
19482;SDS011;9882;51.166;6.992;2023-08-17T13:05:50;11.70;;;5.10;;
19482;SDS011;9882;51.166;6.992;2023-08-17T13:08:19;16.95;;;5.22;;
19482;SDS011;9882;51.166;6.992;2023-08-17T13:10:48;13.68;;;5.68;;
19482;SDS011;9882;51.166;6.992;2023-08-17T13:13:16;13.48;;;5.38;;
19482;SDS011;9882;51.166;6.992;2023-08-17T13:15:45;11.68;;;5.32;;
19482;SDS011;9882;51.166;6.992;2023-08-17T13:18:13;9.48;;;4.72;;
19482;SDS011;9882;51.166;6.992;2023-08-17T13:20:42;11.45;;;4.57;;
19482;SDS011;9882;51.166;6.992;2023-08-17T13:23:12;13.43;;;5.90;;
19482;SDS011;9882;51.166;6.992;2023-08-17T13:25:41;10.45;;;5.28;;
19482;SDS011;9882;51.166;6.992;2023-08-17T13:28:09;16.08;;;5.68;;
19482;SDS011;9882;51.166;6.992;2023-08-17T13:30:38;11.85;;;5.45;;
19482;SDS011;9882;51.166;6.992;2023-08-17T13:33:06;13.80;;;5.53;;
19482;SDS011;9882;51.166;6.992;2023-08-17T13:35:35;9.23;;;4.65;;
19482;SDS011;9882;51.166;6.992;2023-08-17T13:38:04;15.40;;;5.57;;
19482;SDS011;9882;51.166;6.992;2023-08-17T13:40:34;14.55;;;5.30;;
19482;SDS011;9882;51.166;6.992;2023-08-17T13:43:05;13.30;;;5.18;;
19482;SDS011;9882;51.166;6.992;2023-08-17T13:45:39;17.20;;;4.97;;
19482;SDS011;9882;51.166;6.992;2023-08-17T13:48:08;13.13;;;5.28;;
19482;SDS011;9882;51.166;6.992;2023-08-17T13:50:37;15.10;;;5.82;;
19482;SDS011;9882;51.166;6.992;2023-08-17T13:53:06;14.82;;;5.63;;
19482;SDS011;9882;51.166;6.992;2023-08-17T13:55:36;11.18;;;4.68;;
19482;SDS011;9882;51.166;6.992;2023-08-17T13:58:05;10.23;;;4.50;;
19482;SDS011;9882;51.166;6.992;2023-08-17T14:00:36;11.88;;;5.05;;
19482;SDS011;9882;51.166;6.992;2023-08-17T14:03:05;8.93;;;4.30;;
19482;SDS011;9882;51.166;6.992;2023-08-17T14:05:34;12.35;;;5.82;;
19482;SDS011;9882;51.166;6.992;2023-08-17T14:08:02;12.15;;;5.43;;
19482;SDS011;9882;51.166;6.992;2023-08-17T14:10:31;11.65;;;5.40;;
19482;SDS011;9882;51.166;6.992;2023-08-17T14:13:06;16.27;;;5.97;;
19482;SDS011;9882;51.166;6.992;2023-08-17T14:15:35;15.05;;;5.88;;
19482;SDS011;9882;51.166;6.992;2023-08-17T14:18:04;11.80;;;5.07;;
19482;SDS011;9882;51.166;6.992;2023-08-17T14:20:33;14.43;;;4.75;;
19482;SDS011;9882;51.166;6.992;2023-08-17T14:23:01;10.75;;;5.15;;
19482;SDS011;9882;51.166;6.992;2023-08-17T14:25:30;10.02;;;4.65;;
19482;SDS011;9882;51.166;6.992;2023-08-17T14:27:58;9.68;;;4.60;;
19482;SDS011;9882;51.166;6.992;2023-08-17T14:30:28;8.98;;;4.40;;
19482;SDS011;9882;51.166;6.992;2023-08-17T14:32:57;8.75;;;4.70;;
19482;SDS011;9882;51.166;6.992;2023-08-17T14:35:27;14.13;;;4.90;;
19482;SDS011;9882;51.166;6.992;2023-08-17T14:37:55;12.88;;;5.43;;
19482;SDS011;9882;51.166;6.992;2023-08-17T14:40:27;11.85;;;5.45;;
19482;SDS011;9882;51.166;6.992;2023-08-17T14:42:56;10.52;;;5.22;;
19482;SDS011;9882;51.166;6.992;2023-08-17T14:45:24;10.95;;;4.68;;
19482;SDS011;9882;51.166;6.992;2023-08-17T14:47:54;8.65;;;4.38;;
19482;SDS011;9882;51.166;6.992;2023-08-17T14:50:24;14.25;;;4.78;;
19482;SDS011;9882;51.166;6.992;2023-08-17T14:52:55;11.60;;;4.43;;
19482;SDS011;9882;51.166;6.992;2023-08-17T14:55:23;10.93;;;5.38;;
19482;SDS011;9882;51.166;6.992;2023-08-17T14:57:52;9.65;;;4.03;;
19482;SDS011;9882;51.166;6.992;2023-08-17T15:00:20;12.30;;;4.55;;
19482;SDS011;9882;51.166;6.992;2023-08-17T15:02:51;11.75;;;4.80;;
19482;SDS011;9882;51.166;6.992;2023-08-17T15:05:21;8.57;;;4.45;;
19482;SDS011;9882;51.166;6.992;2023-08-17T15:07:54;12.63;;;4.20;;
19482;SDS011;9882;51.166;6.992;2023-08-17T15:10:23;11.13;;;4.65;;
19482;SDS011;9882;51.166;6.992;2023-08-17T15:12:51;10.70;;;4.60;;
19482;SDS011;9882;51.166;6.992;2023-08-17T15:15:20;7.78;;;3.70;;
19482;SDS011;9882;51.166;6.992;2023-08-17T15:17:48;7.22;;;3.53;;
19482;SDS011;9882;51.166;6.992;2023-08-17T15:20:17;7.28;;;3.72;;
19482;SDS011;9882;51.166;6.992;2023-08-17T15:22:47;9.38;;;3.90;;
19482;SDS011;9882;51.166;6.992;2023-08-17T15:25:16;10.77;;;4.15;;
19482;SDS011;9882;51.166;6.992;2023-08-17T15:27:44;10.77;;;4.28;;
19482;SDS011;9882;51.166;6.992;2023-08-17T15:30:13;10.65;;;3.83;;